Time;durP1;ratioP1;P1;durP2;ratioP2;P2;SDS_P1;SDS_P2;PMS_P1;PMS_P2;Temp;Humidity;BMP_temperature;BMP_pressure;BME280_temperature;BME280_humidity;BME280_pressure;Samples;Min_cycle;Max_cycle;Signal;HPM_P1;HPM_P2
2023/05/15 00:00:48;;;;;;;7.53;6.50;;;;;;;13.66;100.00;101444.97;5012629;28;20218;-79
2023/05/15 00:03:13;;;;;;;7.80;6.33;;;;;;;13.60;100.00;101437.16;4998792;28;20686;-79
2023/05/15 00:05:39;;;;;;;7.13;6.33;;;;;;;13.55;100.00;101437.09;5033386;28;20616;-78
2023/05/15 00:08:05;;;;;;;7.63;6.90;;;;;;;13.57;100.00;101431.97;5033505;28;20289;-79
2023/05/15 00:10:30;;;;;;;8.80;6.77;;;;;;;13.56;100.00;101433.69;5030756;28;20563;-79
2023/05/15 00:12:55;;;;;;;7.57;6.20;;;;;;;13.55;100.00;101421.66;5009791;28;20253;-79
2023/05/15 00:15:21;;;;;;;7.93;6.80;;;;;;;13.50;100.00;101428.44;5021098;28;20225;-78
2023/05/15 00:17:46;;;;;;;9.07;7.20;;;;;;;13.50;100.00;101415.59;5028478;28;20268;-77
2023/05/15 00:20:12;;;;;;;9.20;6.73;;;;;;;13.50;100.00;101404.41;5029631;28;20271;-78
2023/05/15 00:22:37;;;;;;;9.33;7.53;;;;;;;13.48;100.00;101393.25;5028932;28;20220;-78
2023/05/15 00:25:03;;;;;;;8.03;7.00;;;;;;;13.48;100.00;101406.94;5029574;28;20842;-78
2023/05/15 00:27:28;;;;;;;9.10;7.20;;;;;;;13.48;100.00;101406.94;5016247;28;20221;-78
2023/05/15 00:29:54;;;;;;;7.93;6.67;;;;;;;13.49;100.00;101394.97;5011684;28;20658;-77
2023/05/15 00:32:19;;;;;;;9.20;6.53;;;;;;;13.47;100.00;101384.66;5033174;28;20707;-78
2023/05/15 00:34:45;;;;;;;7.27;6.53;;;;;;;13.51;100.00;101385.56;5011949;28;20190;-77
2023/05/15 00:37:10;;;;;;;7.53;6.27;;;;;;;13.51;100.00;101389.00;4994486;28;20576;-77
2023/05/15 00:39:37;;;;;;;8.93;7.30;;;;;;;13.45;100.00;101400.91;5011421;28;20599;-78
2023/05/15 00:42:04;;;;;;;8.23;7.10;;;;;;;13.44;100.00;101394.03;5013907;28;20198;-77
2023/05/15 00:44:33;;;;;;;8.37;7.13;;;;;;;13.46;100.00;101387.19;5029250;28;20186;-78
2023/05/15 00:47:01;;;;;;;8.27;7.20;;;;;;;13.50;100.00;101376.09;5013402;28;20699;-78
2023/05/15 00:49:28;;;;;;;9.27;7.20;;;;;;;13.50;100.00;101368.38;4996000;28;20187;-78
2023/05/15 00:51:56;;;;;;;7.73;6.93;;;;;;;13.49;100.00;101372.66;5010234;28;20198;-78
2023/05/15 00:54:23;;;;;;;10.20;7.60;;;;;;;13.49;100.00;101371.81;5011017;28;20608;-78
2023/05/15 00:56:50;;;;;;;9.60;6.80;;;;;;;13.46;100.00;101371.75;5016973;28;20316;-78
2023/05/15 00:59:16;;;;;;;7.80;7.00;;;;;;;13.41;100.00;101369.13;5011080;28;20289;-78
2023/05/15 01:01:44;;;;;;;8.17;6.67;;;;;;;13.43;100.00;101364.84;5032566;28;20592;-78
2023/05/15 01:04:10;;;;;;;8.03;7.07;;;;;;;13.41;100.00;101363.97;5017478;28;20289;-78
2023/05/15 01:06:36;;;;;;;8.43;7.03;;;;;;;13.39;100.00;101359.66;5014204;28;20220;-77
2023/05/15 01:09:03;;;;;;;8.23;7.37;;;;;;;13.33;100.00;101357.81;5032159;28;20201;-77
2023/05/15 01:11:34;;;;;;;8.27;7.43;;;;;;;13.36;100.00;101357.88;5014487;28;20722;-77
2023/05/15 01:14:06;;;;;;;10.07;6.90;;;;;;;13.34;100.00;101351.84;5004556;28;20190;-78
2023/05/15 01:16:32;;;;;;;8.70;7.57;;;;;;;13.27;100.00;101356.84;5032088;28;20198;-78
2023/05/15 01:18:58;;;;;;;7.60;6.80;;;;;;;13.28;100.00;101356.00;5032388;28;20786;-78
2023/05/15 01:21:36;;;;;;;9.33;7.90;;;;;;;13.25;100.00;101351.69;5031980;28;20186;-78
2023/05/15 01:24:26;;;;;;;8.43;7.53;;;;;;;13.24;100.00;101352.53;5019387;28;20198;-78
2023/05/15 01:27:33;;;;;;;9.00;7.53;;;;;;;13.23;100.00;101347.34;5009986;28;20276;-78
2023/05/15 01:30:02;;;;;;;9.40;8.37;;;;;;;13.17;100.00;101347.25;5025922;28;20271;-77
2023/05/15 01:32:42;;;;;;;8.63;7.40;;;;;;;13.03;100.00;101346.16;5031025;28;20190;-78
2023/05/15 01:35:42;;;;;;;8.93;7.87;;;;;;;13.12;100.00;101347.16;4995128;28;20576;-78
2023/05/15 01:38:11;;;;;;;10.53;8.37;;;;;;;13.08;100.00;101347.94;5003786;28;20244;-77
2023/05/15 01:40:37;;;;;;;10.97;8.50;;;;;;;13.03;100.00;101334.16;5031733;28;20265;-77
2023/05/15 01:43:08;;;;;;;8.63;7.73;;;;;;;13.00;100.00;101339.25;5000726;28;20663;-77
2023/05/15 01:45:36;;;;;;;8.87;7.37;;;;;;;12.82;100.00;101341.47;5014231;28;20543;-77
2023/05/15 01:48:06;;;;;;;9.90;8.30;;;;;;;12.75;100.00;101337.03;4993362;28;20285;-77
2023/05/15 01:50:34;;;;;;;9.67;8.30;;;;;;;12.69;100.00;101342.06;5045162;28;20206;-77
2023/05/15 01:53:01;;;;;;;8.83;8.03;;;;;;;12.63;100.00;101347.94;5015993;28;20194;-78
2023/05/15 01:55:29;;;;;;;8.80;7.90;;;;;;;12.60;100.00;101345.34;5031077;28;20197;-78
2023/05/15 01:57:59;;;;;;;10.83;7.37;;;;;;;12.42;100.00;101347.56;5005399;28;20237;-78
2023/05/15 02:00:25;;;;;;;8.80;7.77;;;;;;;12.42;100.00;101339.84;5019425;28;20296;-78
2023/05/15 02:02:51;;;;;;;10.33;8.40;;;;;;;12.35;100.00;101337.97;5036559;28;20190;-78
2023/05/15 02:05:18;;;;;;;9.83;8.07;;;;;;;12.40;100.00;101338.94;5011822;28;20227;-78
2023/05/15 02:07:46;;;;;;;8.70;7.87;;;;;;;12.36;100.00;101334.56;5019279;28;20240;-78
2023/05/15 02:10:15;;;;;;;9.27;8.27;;;;;;;12.38;100.00;101332.91;5014388;28;20281;-78
2023/05/15 02:12:45;;;;;;;12.03;8.57;;;;;;;12.42;100.00;101338.97;5017727;28;20592;-78
2023/05/15 02:15:12;;;;;;;8.87;7.97;;;;;;;12.32;100.00;101337.06;5013514;28;20202;-78
2023/05/15 02:17:39;;;;;;;9.40;7.97;;;;;;;12.23;100.00;101331.75;5013310;28;20234;-78
2023/05/15 02:20:06;;;;;;;10.13;8.27;;;;;;;12.14;100.00;101332.44;5018499;28;20248;-78
2023/05/15 02:22:32;;;;;;;9.93;8.83;;;;;;;12.06;100.00;101338.22;5016839;28;20202;-78
2023/05/15 02:24:59;;;;;;;11.40;8.00;;;;;;;11.97;100.00;101327.75;4999983;28;20209;-77
2023/05/15 02:27:50;;;;;;;10.03;9.13;;;;;;;11.88;100.00;101320.72;5018129;28;20308;-78
2023/05/15 02:30:37;;;;;;;9.27;8.20;;;;;;;11.88;100.00;101328.44;5015637;28;20210;-77
2023/05/15 02:33:24;;;;;;;10.50;8.87;;;;;;;11.80;100.00;101322.25;5014250;28;20194;-78
2023/05/15 02:36:05;;;;;;;10.10;9.10;;;;;;;11.63;100.00;101322.72;5031420;28;20222;-78
2023/05/15 02:38:47;;;;;;;9.73;8.77;;;;;;;11.62;100.00;101321.84;5041918;28;20280;-78
2023/05/15 02:41:14;;;;;;;12.97;8.53;;;;;;;11.62;100.00;101316.72;5017345;28;20194;-78
2023/05/15 02:43:41;;;;;;;9.50;8.53;;;;;;;11.51;100.00;101325.84;5014282;28;20539;-78
2023/05/15 02:46:09;;;;;;;9.57;8.53;;;;;;;11.52;100.00;101317.31;5015790;28;20191;-77
2023/05/15 02:48:39;;;;;;;10.37;8.50;;;;;;;11.37;100.00;101323.78;5017044;28;20210;-77
2023/05/15 02:51:06;;;;;;;9.57;8.67;;;;;;;11.41;100.00;101316.19;5016451;28;20225;-78
2023/05/15 02:53:32;;;;;;;9.60;8.57;;;;;;;11.40;100.00;101314.47;5014252;28;20222;-78
2023/05/15 02:55:57;;;;;;;10.50;8.97;;;;;;;11.31;100.00;101319.38;5029776;28;20198;-77
2023/05/15 02:58:23;;;;;;;10.47;9.27;;;;;;;11.20;100.00;101322.53;4996989;28;20229;-78
2023/05/15 03:00:48;;;;;;;9.93;8.93;;;;;;;11.23;100.00;101314.88;5012487;28;20198;-77
2023/05/15 03:03:14;;;;;;;9.63;8.67;;;;;;;11.30;100.00;101314.22;5012610;28;20202;-78
2023/05/15 03:05:39;;;;;;;10.40;8.70;;;;;;;11.24;100.00;101316.63;5012921;28;20201;-77
2023/05/15 03:08:05;;;;;;;9.80;8.80;;;;;;;11.20;100.00;101322.53;4997241;28;20241;-78
2023/05/15 03:10:30;;;;;;;11.03;9.00;;;;;;;11.19;100.00;101311.38;5014229;28;20228;-78
2023/05/15 03:12:58;;;;;;;10.43;9.33;;;;;;;11.17;100.00;101312.19;5012510;28;20201;-78
2023/05/15 03:15:24;;;;;;;10.93;9.83;;;;;;;11.14;100.00;101312.09;5046250;28;20626;-77
2023/05/15 03:17:50;;;;;;;11.03;8.80;;;;;;;11.09;100.00;101306.88;5022293;28;20218;-78
2023/05/15 03:20:15;;;;;;;11.60;10.47;;;;;;;11.08;100.00;101304.25;5012183;28;20409;-78
2023/05/15 03:22:41;;;;;;;11.07;9.37;;;;;;;10.98;100.00;101300.63;5029713;28;20248;-78
2023/05/15 03:25:10;;;;;;;10.33;9.33;;;;;;;10.93;100.00;101296.22;5011615;28;20199;-77
2023/05/15 03:27:35;;;;;;;12.73;9.67;;;;;;;10.92;100.00;101292.75;5012072;28;20221;-77
2023/05/15 03:30:02;;;;;;;10.27;9.17;;;;;;;10.91;100.00;101296.16;5012729;28;20186;-77
2023/05/15 03:32:27;;;;;;;10.07;9.07;;;;;;;10.95;100.00;101294.53;5030382;28;20190;-77
2023/05/15 03:34:52;;;;;;;10.87;9.77;;;;;;;10.91;100.00;101290.16;5026945;28;20204;-78
2023/05/15 03:37:18;;;;;;;10.60;9.50;;;;;;;10.86;100.00;101292.63;5011525;28;20353;-78
2023/05/15 03:39:43;;;;;;;10.57;9.10;;;;;;;10.78;100.00;101293.25;5039101;28;20297;-77
2023/05/15 03:42:10;;;;;;;10.60;9.50;;;;;;;10.84;100.00;101283.16;4997933;28;20205;-78
2023/05/15 03:44:35;;;;;;;12.27;10.77;;;;;;;10.84;100.00;101285.72;5023383;28;20198;-77
2023/05/15 03:47:01;;;;;;;11.73;10.03;;;;;;;10.79;100.00;101285.59;5017033;28;20218;-77
2023/05/15 03:49:26;;;;;;;13.87;10.20;;;;;;;10.75;100.00;101288.94;5007982;28;20643;-77
2023/05/15 03:51:52;;;;;;;11.03;9.93;;;;;;;10.78;100.00;101294.13;5034564;28;20247;-77
2023/05/15 03:54:17;;;;;;;10.53;9.57;;;;;;;10.77;100.00;101291.50;5040094;28;20190;-76
2023/05/15 03:56:43;;;;;;;13.17;10.47;;;;;;;10.74;100.00;101286.31;5045037;28;20578;-77
2023/05/15 03:59:08;;;;;;;12.20;10.97;;;;;;;10.85;100.00;101285.78;5026833;28;20221;-78
2023/05/15 04:01:34;;;;;;;15.40;10.97;;;;;;;10.88;100.00;101287.53;5031479;28;20684;-78
2023/05/15 04:03:59;;;;;;;13.93;10.93;;;;;;;10.88;100.00;101282.41;5021414;28;20651;-78
2023/05/15 04:06:25;;;;;;;13.97;11.13;;;;;;;10.88;100.00;101284.97;5033889;28;20204;-78
2023/05/15 04:08:50;;;;;;;13.90;10.80;;;;;;;10.83;100.00;101287.41;5035032;28;20208;-78
2023/05/15 04:11:16;;;;;;;14.73;10.73;;;;;;;10.78;100.00;101286.44;5019039;28;20197;-78
2023/05/15 04:13:41;;;;;;;14.37;11.03;;;;;;;10.75;100.00;101283.81;5040196;28;20182;-78
2023/05/15 04:16:07;;;;;;;14.23;11.00;;;;;;;10.78;100.00;101281.31;5016403;28;20209;-78
2023/05/15 04:18:33;;;;;;;13.67;11.90;;;;;;;10.83;100.00;101277.16;5018119;28;20317;-78
2023/05/15 04:20:58;;;;;;;12.97;11.10;;;;;;;10.83;100.00;101274.59;5016693;28;20260;-78
2023/05/15 04:23:24;;;;;;;15.97;10.90;;;;;;;10.78;100.00;101278.75;5022503;28;20222;-77
2023/05/15 04:25:52;;;;;;;12.70;10.83;;;;;;;10.82;100.00;101277.13;5040925;28;20182;-80
2023/05/15 04:28:20;;;;;;;15.23;12.03;;;;;;;10.94;100.00;101274.88;5016755;28;20233;-80
2023/05/15 04:30:45;;;;;;;12.87;11.33;;;;;;;10.99;100.00;101273.28;5034596;28;20212;-78
2023/05/15 04:33:11;;;;;;;13.87;11.77;;;;;;;11.04;100.00;101275.16;5039672;28;20292;-79
2023/05/15 04:35:36;;;;;;;13.47;12.07;;;;;;;11.11;100.00;101269.31;5038932;28;20240;-78
2023/05/15 04:38:02;;;;;;;13.83;11.53;;;;;;;11.15;100.00;101263.44;5011115;28;20280;-78
2023/05/15 04:40:28;;;;;;;14.93;11.20;;;;;;;11.24;100.00;101265.38;5035999;28;20214;-80
2023/05/15 04:42:55;;;;;;;12.87;11.27;;;;;;;11.34;100.00;101269.88;5022423;28;20198;-80
2023/05/15 04:45:20;;;;;;;14.37;11.57;;;;;;;11.41;100.00;101266.59;5006066;28;20200;-82
2023/05/15 04:47:48;;;;;;;13.03;11.40;;;;;;;11.44;100.00;101266.69;5032682;28;20246;-79
2023/05/15 04:50:13;;;;;;;13.97;11.37;;;;;;;11.54;100.00;101266.94;5015071;28;20190;-79
2023/05/15 04:52:39;;;;;;;13.93;11.30;;;;;;;11.65;100.00;101257.78;5002748;28;20607;-80
2023/05/15 04:55:07;;;;;;;12.60;11.37;;;;;;;11.76;100.00;101256.31;5004241;28;20248;-81
2023/05/15 04:57:32;;;;;;;16.40;11.80;;;;;;;11.85;100.00;101251.38;5010837;28;20625;-81
2023/05/15 04:59:58;;;;;;;13.17;10.87;;;;;;;11.95;100.00;101260.13;5010018;28;20451;-82
2023/05/15 05:02:24;;;;;;;16.13;11.27;;;;;;;12.02;100.00;101255.16;5008089;28;20652;-81
2023/05/15 05:04:50;;;;;;;12.90;11.50;;;;;;;12.13;100.00;101261.34;5026402;28;20214;-82
2023/05/15 05:07:17;;;;;;;15.13;12.13;;;;;;;12.25;100.00;101258.16;5018827;28;20218;-80
2023/05/15 05:09:44;;;;;;;12.73;10.77;;;;;;;12.35;100.00;101254.97;5004957;28;20190;-81
2023/05/15 05:12:10;;;;;;;14.20;11.53;;;;;;;12.47;100.00;101260.28;5016270;28;20191;-80
2023/05/15 05:15:07;;;;;;;12.97;11.33;;;;;;;12.60;100.00;101258.00;5015301;28;20198;-80
2023/05/15 05:17:41;;;;;;;12.17;11.00;;;;;;;12.63;100.00;101258.03;5000940;28;20230;-81
2023/05/15 05:20:32;;;;;;;12.10;10.00;;;;;;;12.82;100.00;101260.06;5025014;28;20293;-81
2023/05/15 05:23:04;;;;;;;10.70;9.67;;;;;;;12.98;100.00;101263.81;5023489;28;20222;-82
2023/05/15 05:25:52;;;;;;;12.77;10.37;;;;;;;13.12;100.00;101256.31;4987047;28;20206;-82
2023/05/15 05:28:20;;;;;;;14.33;11.00;;;;;;;13.25;100.00;101258.25;5027619;28;20317;-82
2023/05/15 05:30:54;;;;;;;11.17;10.07;;;;;;;13.36;100.00;101252.41;5004964;28;20283;-81
2023/05/15 05:33:20;;;;;;;12.77;10.53;;;;;;;13.49;100.00;101251.72;5005294;28;20577;-82
2023/05/15 05:35:45;;;;;;;11.23;10.03;;;;;;;13.65;100.00;101250.22;5001329;28;20201;-82
2023/05/15 05:38:39;;;;;;;12.07;10.83;;;;;;;13.76;100.00;101244.38;5002519;28;20307;-81
2023/05/15 05:41:50;;;;;;;12.43;10.63;;;;;;;13.90;100.00;101242.00;5008429;28;20294;-83
2023/05/15 05:45:23;;;;;;;11.80;10.70;;;;;;;14.13;100.00;101248.28;4890504;29;20214;-82
2023/05/15 05:48:19;;;;;;;12.40;11.20;;;;;;;14.29;100.00;101240.78;4915557;28;20259;-82
2023/05/15 05:52:06;;;;;;;13.40;10.83;;;;;;;14.50;100.00;101237.56;4952111;28;20242;-82
2023/05/15 05:54:54;;;;;;;12.10;10.07;;;;;;;14.58;100.00;101229.03;4924028;28;20196;-82
2023/05/15 05:57:31;;;;;;;11.40;9.70;;;;;;;14.75;100.00;101214.59;4957137;28;20209;-84
2023/05/15 06:00:00;;;;;;;11.00;9.90;;;;;;;14.87;100.00;101227.56;4947382;28;20574;-81
2023/05/15 06:02:49;;;;;;;11.17;9.37;;;;;;;15.04;100.00;101222.53;4953265;28;20550;-82
2023/05/15 06:05:14;;;;;;;11.17;10.07;;;;;;;15.25;100.00;101238.19;4957662;28;20348;-84
2023/05/15 06:07:41;;;;;;;11.43;10.20;;;;;;;15.42;100.00;101231.47;4975988;28;20238;-82
2023/05/15 06:10:17;;;;;;;10.97;9.87;;;;;;;15.52;100.00;101207.41;4994213;28;20206;-83
2023/05/15 06:13:05;;;;;;;10.60;9.47;;;;;;;15.63;100.00;101201.44;5025059;28;20198;-82
2023/05/15 06:16:03;;;;;;;10.83;9.70;;;;;;;15.72;100.00;101193.75;5047024;28;20630;-83
2023/05/15 06:18:40;;;;;;;10.30;9.23;;;;;;;15.88;100.00;101220.50;5018042;28;20240;-82
2023/05/15 06:21:14;;;;;;;11.80;10.57;;;;;;;16.02;100.00;101203.31;5012008;28;20245;-82
2023/05/15 06:23:39;;;;;;;10.50;9.50;;;;;;;15.97;100.00;101212.78;5005818;28;20183;-81
2023/05/15 06:26:05;;;;;;;11.47;10.27;;;;;;;16.00;100.00;101217.94;5021809;28;20233;-83
2023/05/15 06:28:31;;;;;;;11.70;9.87;;;;;;;16.14;100.00;101204.22;5018742;28;20273;-83
2023/05/15 06:30:56;;;;;;;10.70;9.60;;;;;;;16.34;100.00;101183.59;5043426;28;20206;-82
2023/05/15 06:33:22;;;;;;;11.33;9.53;;;;;;;16.52;100.00;101165.50;5048773;28;20286;-82
2023/05/15 06:35:47;;;;;;;9.93;8.93;;;;;;;16.70;100.00;101124.13;5009131;28;20221;-78
2023/05/15 06:38:13;;;;;;;10.40;9.40;;;;;;;16.87;100.00;101125.88;5034106;28;20289;-78
2023/05/15 06:40:38;;;;;;;9.20;8.20;;;;;;;17.10;100.00;101125.81;5020004;28;20206;-82
2023/05/15 06:43:03;;;;;;;9.83;8.67;;;;;;;17.16;100.00;101097.31;5032801;28;20206;-81
2023/05/15 06:45:30;;;;;;;9.67;8.57;;;;;;;17.37;100.00;101094.66;5004275;28;20202;-78
2023/05/15 06:47:58;;;;;;;10.90;8.40;;;;;;;17.58;100.00;101118.75;5031254;28;20229;-80
2023/05/15 06:50:25;;;;;;;9.30;7.43;;;;;;;17.69;100.00;101056.53;5012785;28;20332;-81
2023/05/15 06:52:53;;;;;;;8.97;6.97;;;;;;;17.80;100.00;101044.38;4982335;28;20195;-78
2023/05/15 06:55:19;;;;;;;8.20;7.40;;;;;;;17.82;100.00;101050.41;5020257;28;20217;-80
2023/05/15 06:57:45;;;;;;;8.60;6.67;;;;;;;18.09;100.00;101024.28;4999926;28;20222;-77
2023/05/15 07:00:11;;;;;;;8.57;6.83;;;;;;;18.28;100.00;101008.56;5032405;28;20875;-77
2023/05/15 07:02:36;;;;;;;9.33;6.57;;;;;;;18.26;100.00;100991.28;5030562;28;20270;-79
2023/05/15 07:05:02;;;;;;;6.17;5.57;;;;;;;18.49;100.00;100927.97;5028885;28;20281;-78
2023/05/15 07:07:27;;;;;;;5.63;5.03;;;;;;;18.40;100.00;100932.41;5025189;28;20293;-79
2023/05/15 07:09:53;;;;;;;6.10;5.33;;;;;;;18.45;100.00;100889.97;5025357;28;20199;-78
2023/05/15 07:12:18;;;;;;;5.57;5.00;;;;;;;18.74;100.00;100895.66;5029619;28;20215;-78
2023/05/15 07:14:43;;;;;;;7.27;4.70;;;;;;;18.90;100.00;100865.19;5027165;28;20545;-78
2023/05/15 07:17:09;;;;;;;4.27;3.87;;;;;;;18.81;100.00;100803.03;5013412;28;20225;-77
2023/05/15 07:19:35;;;;;;;4.30;3.20;;;;;;;18.81;100.00;100772.75;5030985;28;20756;-78
2023/05/15 07:22:00;;;;;;;4.60;3.53;;;;;;;18.82;99.97;100764.09;5031075;28;20605;-78
2023/05/15 07:24:26;;;;;;;3.97;3.60;;;;;;;19.05;95.60;100724.75;5016793;28;20211;-78
2023/05/15 07:26:51;;;;;;;4.70;3.37;;;;;;;19.13;93.02;100710.78;5024068;28;20243;-75
2023/05/15 07:29:17;;;;;;;4.57;3.53;;;;;;;19.17;96.99;100735.78;5022315;28;20183;-75
2023/05/15 07:31:43;;;;;;;7.67;3.67;;;;;;;19.44;89.02;100679.94;5028518;28;20217;-75
2023/05/15 07:34:10;;;;;;;3.80;3.50;;;;;;;19.73;84.26;100638.63;5028030;28;20195;-75
2023/05/15 07:36:35;;;;;;;3.73;3.43;;;;;;;19.94;78.88;100605.22;5031590;28;20210;-75
2023/05/15 07:39:01;;;;;;;3.70;3.03;;;;;;;20.05;81.77;100624.06;5032297;28;20686;-75
2023/05/15 07:41:26;;;;;;;3.97;3.27;;;;;;;20.23;77.77;100592.44;5035477;28;20194;-75
2023/05/15 07:43:52;;;;;;;3.30;3.00;;;;;;;20.46;72.30;100556.31;5040396;28;20248;-77
2023/05/15 07:46:17;;;;;;;3.40;2.80;;;;;;;20.71;74.92;100587.78;5009471;28;20191;-74
2023/05/15 07:48:42;;;;;;;5.00;3.30;;;;;;;20.83;71.49;100609.13;5028087;28;20291;-73
2023/05/15 07:51:08;;;;;;;3.70;3.00;;;;;;;20.96;67.90;100643.56;5022314;28;20544;-76
2023/05/15 07:53:33;;;;;;;4.07;2.93;;;;;;;21.20;67.09;100655.94;5028035;28;20613;-74
2023/05/15 07:55:59;;;;;;;7.93;2.80;;;;;;;21.36;66.11;100660.69;5025760;28;20196;-74
2023/05/15 07:58:24;;;;;;;4.10;2.60;;;;;;;21.62;56.56;100642.56;5024375;28;20203;-74
2023/05/15 08:00:50;;;;;;;4.00;2.77;;;;;;;21.75;57.98;100675.22;5024649;28;20202;-75
2023/05/15 08:03:15;;;;;;;5.43;2.60;;;;;;;21.85;56.84;100683.66;5023832;28;20202;-75
2023/05/15 08:05:41;;;;;;;4.73;2.50;;;;;;;22.00;51.74;100665.81;5033546;28;20222;-74
2023/05/15 08:08:06;;;;;;;3.77;2.30;;;;;;;22.23;52.38;100689.44;5021983;28;20207;-73
2023/05/15 08:10:32;;;;;;;2.90;2.40;;;;;;;22.49;51.66;100708.69;5029489;28;20182;-73
2023/05/15 08:12:57;;;;;;;5.23;3.20;;;;;;;22.58;51.00;100701.44;5030119;28;20201;-74
2023/05/15 08:15:23;;;;;;;2.97;2.40;;;;;;;22.73;50.26;100710.50;5011609;28;20194;-74
2023/05/15 08:17:48;;;;;;;3.37;2.37;;;;;;;22.90;47.96;100685.56;5032619;28;20304;-75
2023/05/15 08:20:14;;;;;;;3.90;2.70;;;;;;;22.82;46.83;100736.34;5028742;28;20222;-75
2023/05/15 08:22:39;;;;;;;3.17;2.40;;;;;;;22.78;46.79;100774.75;5034776;28;20194;-74
2023/05/15 08:25:06;;;;;;;4.43;2.10;;;;;;;23.05;48.34;100820.06;5033506;28;20190;-76
2023/05/15 08:27:31;;;;;;;3.57;2.53;;;;;;;23.08;47.76;100851.31;5031021;28;20213;-77
2023/05/15 08:29:57;;;;;;;4.13;2.40;;;;;;;23.26;44.84;100833.34;5031911;28;20243;-74
2023/05/15 08:32:22;;;;;;;2.77;2.50;;;;;;;23.49;46.58;100869.19;5031719;28;20237;-74
2023/05/15 08:34:47;;;;;;;4.70;3.20;;;;;;;23.77;45.68;100856.88;5028914;28;20182;-74
2023/05/15 08:37:13;;;;;;;2.97;2.67;;;;;;;23.67;45.54;100858.13;5027320;28;20218;-75
2023/05/15 08:39:38;;;;;;;3.03;2.50;;;;;;;23.84;45.30;100848.78;5024771;28;20210;-75
2023/05/15 08:42:09;;;;;;;3.17;1.97;;;;;;;23.94;43.80;100862.44;5033398;28;20202;-73
2023/05/15 08:44:36;;;;;;;4.30;2.33;;;;;;;24.08;43.10;100868.03;5031611;28;20212;-73
2023/05/15 08:47:03;;;;;;;4.37;2.33;;;;;;;24.20;41.67;100844.88;5023730;28;20202;-75
2023/05/15 08:49:56;;;;;;;2.72;2.53;;;;;;;24.44;41.85;100851.00;5027942;28;20196;-75
2023/05/15 08:52:22;;;;;;;2.90;2.40;;;;;;;24.43;43.17;100891.19;5030853;28;20216;-75
2023/05/15 08:54:49;;;;;;;3.42;2.42;;;;;;;24.63;41.45;100852.88;5034083;28;20190;-75
2023/05/15 08:57:16;;;;;;;3.75;2.22;;;;;;;24.46;41.21;100839.56;5025719;28;20303;-74
2023/05/15 08:59:42;;;;;;;3.97;2.30;;;;;;;24.65;40.78;100843.22;5021851;28;20226;-73
2023/05/15 09:02:08;;;;;;;2.77;2.30;;;;;;;24.55;41.80;100860.16;5021803;28;20191;-74
2023/05/15 09:04:33;;;;;;;3.00;2.30;;;;;;;24.75;40.88;100852.44;5022826;28;20277;-74
2023/05/15 09:07:00;;;;;;;2.57;2.33;;;;;;;24.94;39.20;100837.69;5030208;28;20213;-73
2023/05/15 09:09:28;;;;;;;3.50;2.20;;;;;;;25.06;40.30;100858.19;5029996;28;20205;-74
2023/05/15 09:11:54;;;;;;;3.45;2.28;;;;;;;24.96;39.12;100838.47;5035304;28;20186;-75
2023/05/15 09:14:20;;;;;;;2.50;2.30;;;;;;;25.01;39.28;100846.19;5028968;28;20201;-74
2023/05/15 09:16:48;;;;;;;6.25;2.58;;;;;;;25.10;39.41;100851.88;5024676;28;20207;-74
2023/05/15 09:19:14;;;;;;;7.30;2.50;;;;;;;25.35;39.78;100846.56;5033623;28;20218;-72
2023/05/15 09:21:39;;;;;;;2.60;2.40;;;;;;;25.36;40.35;100864.00;5029334;28;20217;-73
2023/05/15 09:24:23;;;;;;;3.50;2.70;;;;;;;25.46;39.08;100860.09;5022821;28;20201;-73
2023/05/15 09:27:02;;;;;;;3.08;2.20;;;;;;;25.45;39.79;100853.13;5018646;28;20214;-73
2023/05/15 09:29:31;;;;;;;3.53;2.28;;;;;;;25.73;38.17;100822.19;5025245;28;20192;-73
2023/05/15 09:32:02;;;;;;;3.47;2.45;;;;;;;25.81;39.30;100849.81;4999395;28;20643;-73
2023/05/15 09:34:33;;;;;;;3.45;2.42;;;;;;;25.84;38.18;100827.84;5018849;28;20183;-73
2023/05/15 09:37:01;;;;;;;3.28;2.28;;;;;;;26.02;39.14;100845.44;5027968;28;20217;-76
2023/05/15 09:39:26;;;;;;;4.45;2.67;;;;;;;25.81;39.52;100865.56;5026921;28;20249;-75
2023/05/15 09:41:53;;;;;;;3.33;2.67;;;;;;;26.15;38.18;100836.94;5030535;28;20209;-75
2023/05/15 09:44:25;;;;;;;3.70;2.75;;;;;;;25.85;37.77;100837.41;5030983;28;20236;-75
2023/05/15 09:46:51;;;;;;;4.10;2.40;;;;;;;26.30;37.93;100846.75;5030468;28;20284;-74
2023/05/15 09:49:18;;;;;;;3.72;2.83;;;;;;;26.14;38.16;100834.38;5030338;28;20278;-75
2023/05/15 09:51:44;;;;;;;2.47;2.28;;;;;;;26.08;37.57;100842.53;5029262;28;20190;-75
2023/05/15 09:54:17;;;;;;;4.45;2.45;;;;;;;26.30;36.91;100836.25;5007672;28;20190;-75
2023/05/15 09:56:44;;;;;;;2.85;2.47;;;;;;;26.18;37.98;100849.09;5026130;28;20210;-75
2023/05/15 09:59:14;;;;;;;3.78;2.42;;;;;;;26.38;38.70;100870.94;5013034;28;20254;-74
2023/05/15 10:01:43;;;;;;;2.75;2.55;;;;;;;26.73;38.65;100864.09;5031384;28;20186;-74
2023/05/15 10:04:10;;;;;;;5.32;2.53;;;;;;;26.90;38.12;100851.84;5034341;28;20194;-74
2023/05/15 10:06:42;;;;;;;4.60;2.63;;;;;;;26.72;36.87;100831.72;5025649;28;20272;-74
2023/05/15 10:09:09;;;;;;;3.15;2.60;;;;;;;26.66;37.38;100846.91;5020871;28;20261;-74
2023/05/15 10:11:37;;;;;;;5.32;2.50;;;;;;;26.88;36.32;100827.44;5029055;28;20217;-75
2023/05/15 10:14:05;;;;;;;5.88;2.95;;;;;;;26.94;35.29;100829.75;4997500;28;20793;-75
2023/05/15 10:16:34;;;;;;;7.10;2.85;;;;;;;27.03;35.29;100831.94;5029592;28;20185;-75
2023/05/15 10:19:03;;;;;;;3.17;2.55;;;;;;;27.06;36.44;100855.47;5026809;28;20238;-75
2023/05/15 10:21:32;;;;;;;4.53;2.20;;;;;;;26.90;36.94;100859.75;5030148;28;20601;-76
2023/05/15 10:23:59;;;;;;;9.18;2.95;;;;;;;27.02;36.02;100824.97;5028150;28;20186;-74
2023/05/15 10:26:37;;;;;;;3.78;2.05;;;;;;;27.18;35.64;100820.72;5019677;28;20727;-74
2023/05/15 10:29:08;;;;;;;3.75;2.58;;;;;;;27.48;35.98;100831.50;5027783;28;20525;-74
2023/05/15 10:31:36;;;;;;;2.95;2.60;;;;;;;27.06;35.08;100805.50;5029408;28;20226;-74
2023/05/15 10:34:03;;;;;;;3.22;2.40;;;;;;;26.85;36.10;100837.25;5024911;28;20606;-74
2023/05/15 10:36:30;;;;;;;2.63;2.42;;;;;;;26.81;36.23;100847.06;5014980;28;20269;-75
2023/05/15 10:39:01;;;;;;;4.45;2.97;;;;;;;26.86;37.05;100862.59;5029307;28;20695;-74
2023/05/15 10:41:32;;;;;;;3.53;2.72;;;;;;;26.81;36.63;100870.72;5029978;28;20241;-73
2023/05/15 10:43:59;;;;;;;4.22;2.95;;;;;;;26.78;36.99;100860.34;5020186;28;20632;-74
2023/05/15 10:46:26;;;;;;;4.57;2.63;;;;;;;27.07;36.95;100851.09;5017603;28;20186;-74
2023/05/15 10:48:52;;;;;;;6.03;2.83;;;;;;;27.13;36.44;100845.50;5030518;28;20209;-74
2023/05/15 10:51:30;;;;;;;3.85;2.78;;;;;;;27.03;37.43;100839.81;5023862;28;20190;-74
2023/05/15 10:53:56;;;;;;;3.35;2.63;;;;;;;26.90;37.29;100841.34;5020425;28;20190;-74
2023/05/15 10:56:37;;;;;;;4.07;2.63;;;;;;;26.62;37.96;100856.69;5026876;28;20552;-74
2023/05/15 10:59:07;;;;;;;3.72;2.60;;;;;;;26.53;37.38;100841.31;5019408;28;20285;-74
2023/05/15 11:01:37;;;;;;;2.97;2.63;;;;;;;26.70;36.35;100823.03;5020810;28;20269;-74
2023/05/15 11:04:08;;;;;;;2.95;2.55;;;;;;;26.61;36.94;100810.31;5026272;28;20182;-74
2023/05/15 11:06:35;;;;;;;3.97;2.80;;;;;;;26.37;37.30;100821.94;5029316;28;20190;-74
2023/05/15 11:09:28;;;;;;;6.53;3.17;;;;;;;26.31;37.96;100843.25;5029631;28;20225;-74
2023/05/15 11:11:54;;;;;;;4.38;2.83;;;;;;;26.46;36.67;100803.13;5023306;28;20191;-74
2023/05/15 11:14:24;;;;;;;6.10;2.90;;;;;;;27.22;37.68;100827.53;5027199;28;20578;-74
2023/05/15 11:16:52;;;;;;;4.28;2.70;;;;;;;26.89;36.07;100786.22;5023606;28;20301;-74
2023/05/15 11:19:24;;;;;;;3.10;2.83;;;;;;;26.83;37.30;100816.28;5027063;28;20211;-74
2023/05/15 11:22:02;;;;;;;3.30;2.85;;;;;;;26.75;36.71;100796.56;5017998;28;20206;-74
2023/05/15 11:24:45;;;;;;;3.15;2.67;;;;;;;26.61;35.45;100786.66;5027505;28;20200;-74
2023/05/15 11:27:12;;;;;;;4.38;2.83;;;;;;;26.35;36.90;100809.78;5016247;28;20377;-74